Danville, VA

1:30 PM EDT on August 30, 2014 (GMT -0400)
Druid Hills | Change Station
CLOSE
Current Station
Personal Weather Station
Location: Danville, VA
Elevation: 499 ft
Nearby Weather Stations

Elev 499 ft 36.56 °N, 79.42 °W | Updated 1 minute ago

Scattered Clouds
Scattered Clouds
87.3 °F
Feels Like 97 °F
N
1.1
Wind Variable Wind from ESE

Today
High -- | Low -- °F
--% Chance of Precip.
Yesterday
High -- | Low -- °F
Precip. -- in
6:47 AM 7:48 PM
Waxing Crescent, 23% visible
Pressure 30.20 in
Visibility -9999.0 miles
Clouds Scattered Clouds 2200 ft
Scattered Clouds 2800 ft
Heat Index 97 °F
Dew Point 75 °F
Humidity 68%
Rainfall 0.07 in
Snow Depth Not available.
UV 8 out of 12
Pollen 9.50 out of 12
Air Quality Not available.
Flu Activity Not available.
SPECI KDAN 301712Z AUTO VRB03KT SCT022 SCT028 28/22 A3020 RMK AO2 T02830217 $

More Conditions Fewer Conditions

Pressure 30.20 in
Visibility -9999.0 miles
Clouds Scattered Clouds 2200 ft
Scattered Clouds 2800 ft
Heat Index 97 °F
Dew Point 75 °F
Humidity 68%
Rainfall 0.07 in
Snow Depth Not available.
UV 8 out of 12
Pollen 9.50 out of 12
Air Quality Not available.
Flu Activity Not available.
SPECI KDAN 301712Z AUTO VRB03KT SCT022 SCT028 28/22 A3020 RMK AO2 T02830217 $

More Conditions Fewer Conditions

10-Day Weather Forecast

Almanac

Astronomy

Aug. 30, 2014 Rise Set
Actual Time 6:47 AM EDT 7:48 PM EDT
Civil Twilight 6:20 AM EDT 8:15 PM EDT
Nautical Twilight 5:49 AM EDT 8:46 PM EDT
Astronomical Twilight 5:16 AM EDT 9:18 PM EDT
Moon 11:24 AM EDT 10:30 PM EDT
Length of Visible Light 13h 54m
Length of Day
13h 01m
Tomorrow will be 2m 13s shorter.
Waxing Crescent, 23% of the Moon is Illuminated
Today
Waxing Crescent
Sep 2
First Quarter
Sep 8
Full
Sep 15
Last Quarter
Sep 24
New

Today's Extremes

State Highs State Lows

Community

WunderPhotos

Upload Photos

1,748,578 photos uploaded!

WunderBlogs® & News

Nearby

Snow Depth

Station Depth Elevation
No new snow has been reported.

Earthquake Activity

City Distance Mag. Time & Date
No recent earthquake activity has been reported nearby.
Minimum magnitude displayed is 2.5.

Coastal Water Temperatures

Place Temperature
No Stations Reporting

Nearby Weather Stations